sensor_id;sensor_type;location;lat;lon;timestamp;P1;durP1;ratioP1;P2;durP2;ratioP2
9449;SDS011;4763;48.370;10.874;2023-04-28T00:02:44;5.73;;;4.03;;
9449;SDS011;4763;48.370;10.874;2023-04-28T00:05:34;5.90;;;4.10;;
9449;SDS011;4763;48.370;10.874;2023-04-28T00:08:21;6.13;;;4.00;;
9449;SDS011;4763;48.370;10.874;2023-04-28T00:11:11;6.70;;;3.63;;
9449;SDS011;4763;48.370;10.874;2023-04-28T00:13:58;6.63;;;4.00;;
9449;SDS011;4763;48.370;10.874;2023-04-28T00:16:45;6.50;;;4.07;;
9449;SDS011;4763;48.370;10.874;2023-04-28T00:19:32;5.93;;;3.83;;
9449;SDS011;4763;48.370;10.874;2023-04-28T00:22:21;9.80;;;4.47;;
9449;SDS011;4763;48.370;10.874;2023-04-28T00:25:08;6.53;;;4.03;;
9449;SDS011;4763;48.370;10.874;2023-04-28T00:27:55;4.67;;;3.33;;
9449;SDS011;4763;48.370;10.874;2023-04-28T00:30:43;7.27;;;3.43;;
9449;SDS011;4763;48.370;10.874;2023-04-28T00:33:31;5.17;;;3.53;;
9449;SDS011;4763;48.370;10.874;2023-04-28T00:36:18;5.73;;;3.60;;
9449;SDS011;4763;48.370;10.874;2023-04-28T00:39:06;4.60;;;3.20;;
9449;SDS011;4763;48.370;10.874;2023-04-28T00:41:54;6.73;;;4.10;;
9449;SDS011;4763;48.370;10.874;2023-04-28T00:44:42;3.73;;;3.33;;
9449;SDS011;4763;48.370;10.874;2023-04-28T00:47:29;4.90;;;3.37;;
9449;SDS011;4763;48.370;10.874;2023-04-28T00:50:16;5.90;;;4.00;;
9449;SDS011;4763;48.370;10.874;2023-04-28T00:53:03;7.97;;;3.70;;
9449;SDS011;4763;48.370;10.874;2023-04-28T00:55:51;6.13;;;3.80;;
9449;SDS011;4763;48.370;10.874;2023-04-28T00:58:41;5.23;;;3.83;;
9449;SDS011;4763;48.370;10.874;2023-04-28T01:01:28;5.20;;;3.47;;
9449;SDS011;4763;48.370;10.874;2023-04-28T01:04:16;6.80;;;3.60;;
9449;SDS011;4763;48.370;10.874;2023-04-28T01:07:06;8.07;;;3.80;;
9449;SDS011;4763;48.370;10.874;2023-04-28T01:09:53;4.33;;;3.20;;
9449;SDS011;4763;48.370;10.874;2023-04-28T01:12:42;5.20;;;4.00;;
9449;SDS011;4763;48.370;10.874;2023-04-28T01:15:29;4.47;;;4.00;;
9449;SDS011;4763;48.370;10.874;2023-04-28T01:18:16;7.50;;;3.53;;
9449;SDS011;4763;48.370;10.874;2023-04-28T01:21:03;5.47;;;4.07;;
9449;SDS011;4763;48.370;10.874;2023-04-28T01:23:52;5.17;;;3.90;;
9449;SDS011;4763;48.370;10.874;2023-04-28T01:26:39;4.70;;;3.40;;
9449;SDS011;4763;48.370;10.874;2023-04-28T01:29:27;5.77;;;3.27;;
9449;SDS011;4763;48.370;10.874;2023-04-28T01:32:15;3.93;;;3.33;;
9449;SDS011;4763;48.370;10.874;2023-04-28T01:35:02;5.17;;;3.40;;
9449;SDS011;4763;48.370;10.874;2023-04-28T01:37:49;6.23;;;3.60;;
9449;SDS011;4763;48.370;10.874;2023-04-28T01:40:37;6.97;;;3.27;;
9449;SDS011;4763;48.370;10.874;2023-04-28T01:43:24;4.40;;;3.60;;
9449;SDS011;4763;48.370;10.874;2023-04-28T01:46:11;5.30;;;3.50;;
9449;SDS011;4763;48.370;10.874;2023-04-28T01:48:59;4.67;;;3.57;;
9449;SDS011;4763;48.370;10.874;2023-04-28T01:51:46;5.00;;;3.93;;
9449;SDS011;4763;48.370;10.874;2023-04-28T01:54:33;5.10;;;3.77;;
9449;SDS011;4763;48.370;10.874;2023-04-28T01:57:21;4.50;;;3.63;;
9449;SDS011;4763;48.370;10.874;2023-04-28T02:00:09;4.23;;;3.60;;
9449;SDS011;4763;48.370;10.874;2023-04-28T02:02:56;4.13;;;3.57;;
9449;SDS011;4763;48.370;10.874;2023-04-28T02:05:43;10.90;;;3.97;;
9449;SDS011;4763;48.370;10.874;2023-04-28T02:08:30;6.90;;;3.63;;
9449;SDS011;4763;48.370;10.874;2023-04-28T02:11:17;6.07;;;3.87;;
9449;SDS011;4763;48.370;10.874;2023-04-28T02:14:05;3.80;;;3.07;;
9449;SDS011;4763;48.370;10.874;2023-04-28T02:16:52;4.60;;;3.27;;
9449;SDS011;4763;48.370;10.874;2023-04-28T02:19:40;4.43;;;3.60;;
9449;SDS011;4763;48.370;10.874;2023-04-28T02:22:27;4.87;;;3.43;;
9449;SDS011;4763;48.370;10.874;2023-04-28T02:25:14;5.40;;;4.07;;
9449;SDS011;4763;48.370;10.874;2023-04-28T02:28:01;5.00;;;3.33;;
9449;SDS011;4763;48.370;10.874;2023-04-28T02:30:49;5.80;;;3.43;;
9449;SDS011;4763;48.370;10.874;2023-04-28T02:33:37;4.07;;;3.13;;
9449;SDS011;4763;48.370;10.874;2023-04-28T02:36:24;5.40;;;3.20;;
9449;SDS011;4763;48.370;10.874;2023-04-28T02:39:12;6.57;;;3.67;;
9449;SDS011;4763;48.370;10.874;2023-04-28T02:41:59;4.43;;;3.57;;
9449;SDS011;4763;48.370;10.874;2023-04-28T02:44:47;4.17;;;3.27;;
9449;SDS011;4763;48.370;10.874;2023-04-28T02:47:35;5.17;;;3.00;;
9449;SDS011;4763;48.370;10.874;2023-04-28T02:50:22;3.87;;;3.13;;
9449;SDS011;4763;48.370;10.874;2023-04-28T02:53:09;6.03;;;3.60;;
9449;SDS011;4763;48.370;10.874;2023-04-28T02:55:56;4.40;;;3.17;;
9449;SDS011;4763;48.370;10.874;2023-04-28T02:58:43;4.07;;;3.00;;
9449;SDS011;4763;48.370;10.874;2023-04-28T03:01:30;4.53;;;3.30;;
9449;SDS011;4763;48.370;10.874;2023-04-28T03:04:19;3.67;;;3.07;;
9449;SDS011;4763;48.370;10.874;2023-04-28T03:07:06;4.73;;;3.43;;
9449;SDS011;4763;48.370;10.874;2023-04-28T03:09:53;4.63;;;3.33;;
9449;SDS011;4763;48.370;10.874;2023-04-28T03:12:40;6.40;;;3.43;;
9449;SDS011;4763;48.370;10.874;2023-04-28T03:15:27;4.17;;;3.17;;
9449;SDS011;4763;48.370;10.874;2023-04-28T03:18:14;4.07;;;2.87;;
9449;SDS011;4763;48.370;10.874;2023-04-28T03:21:04;4.90;;;2.80;;
9449;SDS011;4763;48.370;10.874;2023-04-28T03:23:52;5.83;;;2.23;;
9449;SDS011;4763;48.370;10.874;2023-04-28T03:26:39;4.07;;;2.80;;
9449;SDS011;4763;48.370;10.874;2023-04-28T03:29:26;4.83;;;2.70;;
9449;SDS011;4763;48.370;10.874;2023-04-28T03:32:13;3.60;;;2.60;;
9449;SDS011;4763;48.370;10.874;2023-04-28T03:35:00;5.00;;;2.90;;
9449;SDS011;4763;48.370;10.874;2023-04-28T03:37:48;4.60;;;2.80;;
9449;SDS011;4763;48.370;10.874;2023-04-28T03:40:36;3.07;;;2.60;;
9449;SDS011;4763;48.370;10.874;2023-04-28T03:43:23;3.07;;;2.77;;
9449;SDS011;4763;48.370;10.874;2023-04-28T03:46:10;3.30;;;2.43;;
9449;SDS011;4763;48.370;10.874;2023-04-28T03:48:57;4.37;;;3.07;;
9449;SDS011;4763;48.370;10.874;2023-04-28T03:51:44;4.90;;;3.03;;
9449;SDS011;4763;48.370;10.874;2023-04-28T03:54:33;5.73;;;2.80;;
9449;SDS011;4763;48.370;10.874;2023-04-28T03:57:20;3.80;;;2.63;;
9449;SDS011;4763;48.370;10.874;2023-04-28T04:00:08;3.70;;;3.03;;
9449;SDS011;4763;48.370;10.874;2023-04-28T04:02:55;2.87;;;2.57;;
9449;SDS011;4763;48.370;10.874;2023-04-28T04:05:42;4.87;;;3.27;;
9449;SDS011;4763;48.370;10.874;2023-04-28T04:08:29;5.17;;;3.27;;
9449;SDS011;4763;48.370;10.874;2023-04-28T04:11:19;4.20;;;2.97;;
9449;SDS011;4763;48.370;10.874;2023-04-28T04:14:06;4.90;;;3.00;;
9449;SDS011;4763;48.370;10.874;2023-04-28T04:16:53;3.17;;;2.73;;
9449;SDS011;4763;48.370;10.874;2023-04-28T04:19:40;4.50;;;3.20;;
9449;SDS011;4763;48.370;10.874;2023-04-28T04:22:27;3.67;;;2.97;;
9449;SDS011;4763;48.370;10.874;2023-04-28T04:25:14;4.90;;;2.87;;
9449;SDS011;4763;48.370;10.874;2023-04-28T04:28:02;4.37;;;2.53;;
9449;SDS011;4763;48.370;10.874;2023-04-28T04:30:50;7.13;;;2.80;;
9449;SDS011;4763;48.370;10.874;2023-04-28T04:33:37;4.67;;;3.07;;
9449;SDS011;4763;48.370;10.874;2023-04-28T04:36:24;3.37;;;2.53;;
9449;SDS011;4763;48.370;10.874;2023-04-28T04:39:11;7.10;;;3.53;;
9449;SDS011;4763;48.370;10.874;2023-04-28T04:41:58;5.50;;;2.80;;
9449;SDS011;4763;48.370;10.874;2023-04-28T04:44:46;4.40;;;3.13;;
9449;SDS011;4763;48.370;10.874;2023-04-28T04:47:33;3.13;;;2.70;;
9449;SDS011;4763;48.370;10.874;2023-04-28T04:50:20;5.33;;;3.10;;
9449;SDS011;4763;48.370;10.874;2023-04-28T04:53:07;3.70;;;3.10;;
9449;SDS011;4763;48.370;10.874;2023-04-28T04:55:55;5.10;;;2.90;;
9449;SDS011;4763;48.370;10.874;2023-04-28T04:58:42;4.77;;;3.20;;
9449;SDS011;4763;48.370;10.874;2023-04-28T05:01:31;4.27;;;3.03;;
9449;SDS011;4763;48.370;10.874;2023-04-28T05:04:18;6.30;;;3.50;;
9449;SDS011;4763;48.370;10.874;2023-04-28T05:07:05;4.57;;;2.70;;
9449;SDS011;4763;48.370;10.874;2023-04-28T05:09:52;4.33;;;2.87;;
9449;SDS011;4763;48.370;10.874;2023-04-28T05:12:39;4.07;;;3.23;;
9449;SDS011;4763;48.370;10.874;2023-04-28T05:15:26;2.87;;;2.60;;
9449;SDS011;4763;48.370;10.874;2023-04-28T05:18:15;4.27;;;2.70;;
9449;SDS011;4763;48.370;10.874;2023-04-28T05:21:03;4.43;;;2.70;;
9449;SDS011;4763;48.370;10.874;2023-04-28T05:23:51;5.83;;;3.10;;
9449;SDS011;4763;48.370;10.874;2023-04-28T05:26:38;4.07;;;3.00;;
9449;SDS011;4763;48.370;10.874;2023-04-28T05:29:25;4.57;;;3.50;;
9449;SDS011;4763;48.370;10.874;2023-04-28T05:32:12;4.27;;;2.97;;
9449;SDS011;4763;48.370;10.874;2023-04-28T05:35:00;7.13;;;3.37;;
9449;SDS011;4763;48.370;10.874;2023-04-28T05:37:48;4.30;;;2.90;;
9449;SDS011;4763;48.370;10.874;2023-04-28T05:40:35;4.23;;;3.10;;
9449;SDS011;4763;48.370;10.874;2023-04-28T05:43:22;3.10;;;2.80;;
9449;SDS011;4763;48.370;10.874;2023-04-28T05:46:09;4.40;;;3.40;;
9449;SDS011;4763;48.370;10.874;2023-04-28T05:48:56;4.13;;;3.03;;
9449;SDS011;4763;48.370;10.874;2023-04-28T05:51:44;3.80;;;2.93;;
9449;SDS011;4763;48.370;10.874;2023-04-28T05:54:31;4.60;;;3.03;;
9449;SDS011;4763;48.370;10.874;2023-04-28T05:57:19;6.10;;;3.80;;
9449;SDS011;4763;48.370;10.874;2023-04-28T06:00:07;3.73;;;3.13;;
9449;SDS011;4763;48.370;10.874;2023-04-28T06:02:55;5.00;;;3.80;;
9449;SDS011;4763;48.370;10.874;2023-04-28T06:05:42;5.50;;;3.70;;
9449;SDS011;4763;48.370;10.874;2023-04-28T06:08:30;6.07;;;3.83;;
9449;SDS011;4763;48.370;10.874;2023-04-28T06:11:17;4.83;;;3.57;;
9449;SDS011;4763;48.370;10.874;2023-04-28T06:14:06;8.17;;;3.50;;
9449;SDS011;4763;48.370;10.874;2023-04-28T06:16:53;8.67;;;4.23;;
9449;SDS011;4763;48.370;10.874;2023-04-28T06:19:40;5.20;;;3.67;;
9449;SDS011;4763;48.370;10.874;2023-04-28T06:22:27;5.13;;;3.33;;
9449;SDS011;4763;48.370;10.874;2023-04-28T06:25:16;4.83;;;3.70;;
9449;SDS011;4763;48.370;10.874;2023-04-28T06:28:03;4.83;;;3.80;;
9449;SDS011;4763;48.370;10.874;2023-04-28T06:30:50;5.70;;;3.87;;
9449;SDS011;4763;48.370;10.874;2023-04-28T06:33:37;5.57;;;3.47;;
9449;SDS011;4763;48.370;10.874;2023-04-28T06:36:25;4.73;;;3.47;;
9449;SDS011;4763;48.370;10.874;2023-04-28T06:39:12;4.50;;;3.40;;
9449;SDS011;4763;48.370;10.874;2023-04-28T06:42:01;4.57;;;3.50;;
9449;SDS011;4763;48.370;10.874;2023-04-28T06:44:48;4.67;;;3.33;;
9449;SDS011;4763;48.370;10.874;2023-04-28T06:47:35;5.23;;;3.70;;
9449;SDS011;4763;48.370;10.874;2023-04-28T06:50:24;4.57;;;3.80;;
9449;SDS011;4763;48.370;10.874;2023-04-28T06:53:11;5.17;;;3.87;;
9449;SDS011;4763;48.370;10.874;2023-04-28T06:55:59;7.27;;;4.20;;
9449;SDS011;4763;48.370;10.874;2023-04-28T06:58:48;3.97;;;3.17;;
9449;SDS011;4763;48.370;10.874;2023-04-28T07:01:35;4.57;;;3.60;;
9449;SDS011;4763;48.370;10.874;2023-04-28T07:04:22;6.73;;;4.23;;
9449;SDS011;4763;48.370;10.874;2023-04-28T07:07:10;4.87;;;3.43;;
9449;SDS011;4763;48.370;10.874;2023-04-28T07:09:57;7.23;;;3.90;;
9449;SDS011;4763;48.370;10.874;2023-04-28T07:12:45;7.47;;;4.20;;
9449;SDS011;4763;48.370;10.874;2023-04-28T07:15:33;6.10;;;4.03;;
9449;SDS011;4763;48.370;10.874;2023-04-28T07:18:20;4.90;;;3.90;;
9449;SDS011;4763;48.370;10.874;2023-04-28T07:21:08;5.77;;;3.70;;
9449;SDS011;4763;48.370;10.874;2023-04-28T07:23:55;6.47;;;3.53;;
9449;SDS011;4763;48.370;10.874;2023-04-28T07:26:42;7.70;;;4.30;;
9449;SDS011;4763;48.370;10.874;2023-04-28T07:29:29;5.20;;;3.53;;
9449;SDS011;4763;48.370;10.874;2023-04-28T07:32:20;3.70;;;3.23;;
9449;SDS011;4763;48.370;10.874;2023-04-28T07:35:08;5.77;;;3.70;;
9449;SDS011;4763;48.370;10.874;2023-04-28T07:37:55;6.40;;;3.97;;
9449;SDS011;4763;48.370;10.874;2023-04-28T07:40:43;6.27;;;3.67;;
9449;SDS011;4763;48.370;10.874;2023-04-28T07:43:30;3.93;;;2.90;;
9449;SDS011;4763;48.370;10.874;2023-04-28T07:46:17;4.60;;;3.10;;
9449;SDS011;4763;48.370;10.874;2023-04-28T07:49:05;4.33;;;2.80;;
9449;SDS011;4763;48.370;10.874;2023-04-28T07:51:52;5.83;;;3.77;;
9449;SDS011;4763;48.370;10.874;2023-04-28T07:54:40;4.47;;;3.47;;
9449;SDS011;4763;48.370;10.874;2023-04-28T07:57:27;3.70;;;2.73;;
9449;SDS011;4763;48.370;10.874;2023-04-28T08:00:15;4.13;;;2.67;;
9449;SDS011;4763;48.370;10.874;2023-04-28T08:03:03;4.80;;;2.47;;
9449;SDS011;4763;48.370;10.874;2023-04-28T08:05:52;2.93;;;2.63;;
9449;SDS011;4763;48.370;10.874;2023-04-28T08:08:39;4.50;;;2.97;;
9449;SDS011;4763;48.370;10.874;2023-04-28T08:11:26;5.13;;;2.57;;
9449;SDS011;4763;48.370;10.874;2023-04-28T08:14:13;4.07;;;2.50;;
9449;SDS011;4763;48.370;10.874;2023-04-28T08:17:00;4.17;;;2.53;;
9449;SDS011;4763;48.370;10.874;2023-04-28T08:19:47;7.37;;;4.57;;
9449;SDS011;4763;48.370;10.874;2023-04-28T08:22:36;5.33;;;3.50;;
9449;SDS011;4763;48.370;10.874;2023-04-28T08:25:23;4.67;;;2.93;;
9449;SDS011;4763;48.370;10.874;2023-04-28T08:28:10;2.67;;;2.13;;
9449;SDS011;4763;48.370;10.874;2023-04-28T08:30:57;5.90;;;1.93;;
9449;SDS011;4763;48.370;10.874;2023-04-28T08:33:45;2.00;;;1.70;;
9449;SDS011;4763;48.370;10.874;2023-04-28T08:36:34;2.40;;;1.87;;
9449;SDS011;4763;48.370;10.874;2023-04-28T08:39:23;3.33;;;1.60;;
9449;SDS011;4763;48.370;10.874;2023-04-28T08:42:11;3.90;;;1.70;;
9449;SDS011;4763;48.370;10.874;2023-04-28T08:44:59;2.40;;;1.80;;
9449;SDS011;4763;48.370;10.874;2023-04-28T08:47:46;1.93;;;1.57;;
9449;SDS011;4763;48.370;10.874;2023-04-28T08:50:36;2.10;;;1.57;;
9449;SDS011;4763;48.370;10.874;2023-04-28T08:53:27;3.67;;;2.23;;
9449;SDS011;4763;48.370;10.874;2023-04-28T08:56:17;3.33;;;1.93;;
9449;SDS011;4763;48.370;10.874;2023-04-28T08:59:08;3.57;;;1.63;;
9449;SDS011;4763;48.370;10.874;2023-04-28T09:01:56;10.23;;;5.47;;
9449;SDS011;4763;48.370;10.874;2023-04-28T09:04:45;3.10;;;2.13;;
9449;SDS011;4763;48.370;10.874;2023-04-28T09:07:32;8.00;;;4.17;;
9449;SDS011;4763;48.370;10.874;2023-04-28T09:10:20;8.83;;;4.63;;
9449;SDS011;4763;48.370;10.874;2023-04-28T09:13:09;4.30;;;3.07;;
9449;SDS011;4763;48.370;10.874;2023-04-28T09:16:10;3.47;;;2.60;;
9449;SDS011;4763;48.370;10.874;2023-04-28T09:18:58;4.67;;;3.30;;
9449;SDS011;4763;48.370;10.874;2023-04-28T09:21:45;2.70;;;2.10;;
9449;SDS011;4763;48.370;10.874;2023-04-28T09:24:38;2.73;;;1.97;;
9449;SDS011;4763;48.370;10.874;2023-04-28T09:27:27;4.67;;;1.93;;
9449;SDS011;4763;48.370;10.874;2023-04-28T09:30:16;4.90;;;4.40;;
9449;SDS011;4763;48.370;10.874;2023-04-28T09:33:04;2.53;;;2.20;;
9449;SDS011;4763;48.370;10.874;2023-04-28T09:35:52;2.53;;;2.03;;
9449;SDS011;4763;48.370;10.874;2023-04-28T09:38:42;4.77;;;1.90;;
9449;SDS011;4763;48.370;10.874;2023-04-28T09:41:36;2.03;;;1.60;;
9449;SDS011;4763;48.370;10.874;2023-04-28T09:44:24;1.93;;;1.60;;
9449;SDS011;4763;48.370;10.874;2023-04-28T09:47:19;1.40;;;1.30;;
9449;SDS011;4763;48.370;10.874;2023-04-28T09:50:07;1.40;;;1.30;;
9449;SDS011;4763;48.370;10.874;2023-04-28T09:52:57;2.37;;;1.80;;
9449;SDS011;4763;48.370;10.874;2023-04-28T09:55:44;1.53;;;1.40;;
9449;SDS011;4763;48.370;10.874;2023-04-28T09:58:33;1.70;;;1.60;;
9449;SDS011;4763;48.370;10.874;2023-04-28T10:01:23;3.57;;;3.27;;
9449;SDS011;4763;48.370;10.874;2023-04-28T10:04:12;2.40;;;2.10;;
9449;SDS011;4763;48.370;10.874;2023-04-28T10:07:00;2.53;;;1.80;;
9449;SDS011;4763;48.370;10.874;2023-04-28T10:09:48;2.53;;;2.03;;
9449;SDS011;4763;48.370;10.874;2023-04-28T10:12:36;2.07;;;1.83;;
9449;SDS011;4763;48.370;10.874;2023-04-28T10:15:23;3.20;;;2.63;;
9449;SDS011;4763;48.370;10.874;2023-04-28T10:18:11;1.87;;;1.60;;
9449;SDS011;4763;48.370;10.874;2023-04-28T10:21:00;1.60;;;1.30;;
9449;SDS011;4763;48.370;10.874;2023-04-28T10:24:08;3.57;;;1.40;;
9449;SDS011;4763;48.370;10.874;2023-04-28T10:27:01;1.40;;;1.30;;
9449;SDS011;4763;48.370;10.874;2023-04-28T10:29:50;6.67;;;3.40;;
9449;SDS011;4763;48.370;10.874;2023-04-28T10:32:37;3.10;;;1.60;;
9449;SDS011;4763;48.370;10.874;2023-04-28T10:35:40;1.80;;;1.57;;
9449;SDS011;4763;48.370;10.874;2023-04-28T10:38:30;1.80;;;1.70;;
9449;SDS011;4763;48.370;10.874;2023-04-28T10:41:30;2.67;;;1.60;;
9449;SDS011;4763;48.370;10.874;2023-04-28T10:47:27;1.87;;;1.07;;
9449;SDS011;4763;48.370;10.874;2023-04-28T10:50:13;1.43;;;1.30;;
9449;SDS011;4763;48.370;10.874;2023-04-28T10:53:01;3.27;;;1.37;;
9449;SDS011;4763;48.370;10.874;2023-04-28T10:55:49;1.37;;;1.27;;
9449;SDS011;4763;48.370;10.874;2023-04-28T10:58:52;5.90;;;1.30;;
9449;SDS011;4763;48.370;10.874;2023-04-28T11:01:39;1.83;;;1.37;;
9449;SDS011;4763;48.370;10.874;2023-04-28T11:04:26;2.70;;;1.77;;
9449;SDS011;4763;48.370;10.874;2023-04-28T11:07:13;2.37;;;1.40;;
9449;SDS011;4763;48.370;10.874;2023-04-28T11:10:01;2.00;;;1.43;;
9449;SDS011;4763;48.370;10.874;2023-04-28T11:16:18;2.80;;;1.60;;
9449;SDS011;4763;48.370;10.874;2023-04-28T11:19:07;2.07;;;1.47;;
9449;SDS011;4763;48.370;10.874;2023-04-28T11:21:59;3.43;;;2.17;;
9449;SDS011;4763;48.370;10.874;2023-04-28T11:24:56;3.13;;;2.33;;
9449;SDS011;4763;48.370;10.874;2023-04-28T11:27:44;17.80;;;8.00;;
9449;SDS011;4763;48.370;10.874;2023-04-28T11:30:32;7.13;;;4.27;;
9449;SDS011;4763;48.370;10.874;2023-04-28T11:33:19;2.47;;;2.13;;
9449;SDS011;4763;48.370;10.874;2023-04-28T11:36:07;4.37;;;1.70;;
9449;SDS011;4763;48.370;10.874;2023-04-28T11:38:55;2.70;;;1.80;;
9449;SDS011;4763;48.370;10.874;2023-04-28T11:41:43;2.13;;;1.90;;
9449;SDS011;4763;48.370;10.874;2023-04-28T11:44:30;2.87;;;2.43;;
9449;SDS011;4763;48.370;10.874;2023-04-28T11:47:28;3.93;;;2.27;;
9449;SDS011;4763;48.370;10.874;2023-04-28T11:50:16;4.37;;;1.90;;
9449;SDS011;4763;48.370;10.874;2023-04-28T11:53:39;2.47;;;1.93;;
9449;SDS011;4763;48.370;10.874;2023-04-28T11:56:26;1.90;;;1.70;;
9449;SDS011;4763;48.370;10.874;2023-04-28T11:59:14;1.83;;;1.63;;
9449;SDS011;4763;48.370;10.874;2023-04-28T12:02:02;2.17;;;1.40;;
9449;SDS011;4763;48.370;10.874;2023-04-28T12:04:51;2.00;;;1.67;;
9449;SDS011;4763;48.370;10.874;2023-04-28T12:07:39;2.60;;;1.50;;
9449;SDS011;4763;48.370;10.874;2023-04-28T12:10:28;1.97;;;1.73;;
9449;SDS011;4763;48.370;10.874;2023-04-28T12:13:15;2.97;;;2.13;;
9449;SDS011;4763;48.370;10.874;2023-04-28T12:16:02;2.80;;;1.93;;
9449;SDS011;4763;48.370;10.874;2023-04-28T12:18:56;3.13;;;2.23;;
9449;SDS011;4763;48.370;10.874;2023-04-28T12:21:58;4.63;;;2.83;;
9449;SDS011;4763;48.370;10.874;2023-04-28T12:25:01;2.87;;;2.37;;
9449;SDS011;4763;48.370;10.874;2023-04-28T12:27:58;2.03;;;1.83;;
9449;SDS011;4763;48.370;10.874;2023-04-28T12:30:46;2.47;;;1.90;;
9449;SDS011;4763;48.370;10.874;2023-04-28T12:33:34;3.07;;;2.10;;
9449;SDS011;4763;48.370;10.874;2023-04-28T12:36:22;3.30;;;2.20;;
9449;SDS011;4763;48.370;10.874;2023-04-28T12:39:13;3.63;;;2.67;;
9449;SDS011;4763;48.370;10.874;2023-04-28T12:42:03;2.37;;;2.07;;
9449;SDS011;4763;48.370;10.874;2023-04-28T12:44:50;3.50;;;2.13;;
9449;SDS011;4763;48.370;10.874;2023-04-28T12:47:37;3.10;;;1.57;;
9449;SDS011;4763;48.370;10.874;2023-04-28T12:50:25;3.30;;;2.20;;
9449;SDS011;4763;48.370;10.874;2023-04-28T12:53:13;3.73;;;1.53;;
9449;SDS011;4763;48.370;10.874;2023-04-28T12:56:02;1.43;;;1.30;;
9449;SDS011;4763;48.370;10.874;2023-04-28T12:58:50;1.50;;;1.20;;
9449;SDS011;4763;48.370;10.874;2023-04-28T13:01:37;3.03;;;1.50;;
9449;SDS011;4763;48.370;10.874;2023-04-28T13:04:24;1.67;;;1.57;;
9449;SDS011;4763;48.370;10.874;2023-04-28T13:07:12;1.97;;;1.77;;
9449;SDS011;4763;48.370;10.874;2023-04-28T13:09:59;1.23;;;1.13;;
9449;SDS011;4763;48.370;10.874;2023-04-28T13:12:47;4.03;;;1.80;;
9449;SDS011;4763;48.370;10.874;2023-04-28T13:15:34;1.27;;;1.17;;
9449;SDS011;4763;48.370;10.874;2023-04-28T13:18:22;1.80;;;1.70;;
9449;SDS011;4763;48.370;10.874;2023-04-28T13:21:09;1.30;;;1.20;;
9449;SDS011;4763;48.370;10.874;2023-04-28T13:23:56;2.10;;;1.70;;
9449;SDS011;4763;48.370;10.874;2023-04-28T13:26:43;1.40;;;1.20;;
9449;SDS011;4763;48.370;10.874;2023-04-28T13:29:32;1.80;;;0.90;;
9449;SDS011;4763;48.370;10.874;2023-04-28T13:32:19;1.80;;;1.27;;
9449;SDS011;4763;48.370;10.874;2023-04-28T13:35:06;1.10;;;1.00;;
9449;SDS011;4763;48.370;10.874;2023-04-28T13:37:54;0.93;;;0.83;;
9449;SDS011;4763;48.370;10.874;2023-04-28T13:40:46;0.70;;;0.60;;
9449;SDS011;4763;48.370;10.874;2023-04-28T13:43:33;0.80;;;0.73;;
9449;SDS011;4763;48.370;10.874;2023-04-28T13:46:21;1.10;;;1.00;;
9449;SDS011;4763;48.370;10.874;2023-04-28T13:49:08;0.60;;;0.60;;
9449;SDS011;4763;48.370;10.874;2023-04-28T13:51:56;0.60;;;0.60;;
9449;SDS011;4763;48.370;10.874;2023-04-28T13:54:43;0.80;;;0.80;;
9449;SDS011;4763;48.370;10.874;2023-04-28T13:57:30;1.13;;;0.77;;
9449;SDS011;4763;48.370;10.874;2023-04-28T14:00:17;1.73;;;1.10;;
9449;SDS011;4763;48.370;10.874;2023-04-28T14:03:07;0.60;;;0.60;;
9449;SDS011;4763;48.370;10.874;2023-04-28T14:05:54;0.50;;;0.50;;
9449;SDS011;4763;48.370;10.874;2023-04-28T14:08:42;0.50;;;0.50;;
9449;SDS011;4763;48.370;10.874;2023-04-28T14:11:29;2.30;;;0.63;;
9449;SDS011;4763;48.370;10.874;2023-04-28T14:14:16;0.50;;;0.50;;
9449;SDS011;4763;48.370;10.874;2023-04-28T14:17:03;0.70;;;0.70;;
9449;SDS011;4763;48.370;10.874;2023-04-28T14:19:52;0.63;;;0.63;;
9449;SDS011;4763;48.370;10.874;2023-04-28T14:22:39;0.83;;;0.83;;
9449;SDS011;4763;48.370;10.874;2023-04-28T14:25:26;0.70;;;0.70;;
9449;SDS011;4763;48.370;10.874;2023-04-28T14:28:14;0.67;;;0.67;;
9449;SDS011;4763;48.370;10.874;2023-04-28T14:31:02;0.87;;;0.87;;
9449;SDS011;4763;48.370;10.874;2023-04-28T14:33:51;0.97;;;0.90;;
9449;SDS011;4763;48.370;10.874;2023-04-28T14:36:39;1.10;;;0.90;;
9449;SDS011;4763;48.370;10.874;2023-04-28T14:39:27;3.53;;;1.07;;
9449;SDS011;4763;48.370;10.874;2023-04-28T14:42:14;1.03;;;0.90;;
9449;SDS011;4763;48.370;10.874;2023-04-28T14:45:01;1.10;;;0.90;;
9449;SDS011;4763;48.370;10.874;2023-04-28T14:47:49;0.80;;;0.80;;
9449;SDS011;4763;48.370;10.874;2023-04-28T14:50:36;1.13;;;1.03;;
9449;SDS011;4763;48.370;10.874;2023-04-28T14:53:25;1.20;;;1.10;;
9449;SDS011;4763;48.370;10.874;2023-04-28T14:56:11;1.40;;;1.07;;
9449;SDS011;4763;48.370;10.874;2023-04-28T14:58:59;1.53;;;1.17;;
9449;SDS011;4763;48.370;10.874;2023-04-28T15:01:46;1.00;;;0.90;;
9449;SDS011;4763;48.370;10.874;2023-04-28T15:04:34;1.30;;;1.20;;
9449;SDS011;4763;48.370;10.874;2023-04-28T15:07:23;3.07;;;1.70;;
9449;SDS011;4763;48.370;10.874;2023-04-28T15:10:16;2.83;;;1.33;;
9449;SDS011;4763;48.370;10.874;2023-04-28T15:13:06;1.53;;;1.13;;
9449;SDS011;4763;48.370;10.874;2023-04-28T15:15:53;2.20;;;1.57;;
9449;SDS011;4763;48.370;10.874;2023-04-28T15:18:40;1.30;;;0.90;;
9449;SDS011;4763;48.370;10.874;2023-04-28T15:21:28;2.40;;;1.20;;
9449;SDS011;4763;48.370;10.874;2023-04-28T15:24:17;0.93;;;0.83;;
9449;SDS011;4763;48.370;10.874;2023-04-28T15:27:06;1.53;;;1.10;;
9449;SDS011;4763;48.370;10.874;2023-04-28T15:29:53;2.13;;;1.47;;
9449;SDS011;4763;48.370;10.874;2023-04-28T15:32:40;2.87;;;1.37;;
9449;SDS011;4763;48.370;10.874;2023-04-28T15:35:28;1.63;;;1.17;;
9449;SDS011;4763;48.370;10.874;2023-04-28T15:38:15;2.17;;;1.50;;
9449;SDS011;4763;48.370;10.874;2023-04-28T15:41:02;3.33;;;1.30;;
9449;SDS011;4763;48.370;10.874;2023-04-28T15:43:51;2.33;;;1.37;;
9449;SDS011;4763;48.370;10.874;2023-04-28T15:46:40;1.70;;;1.27;;
9449;SDS011;4763;48.370;10.874;2023-04-28T15:49:28;1.60;;;1.40;;
9449;SDS011;4763;48.370;10.874;2023-04-28T15:52:15;5.07;;;3.20;;
9449;SDS011;4763;48.370;10.874;2023-04-28T15:55:03;5.03;;;3.93;;
9449;SDS011;4763;48.370;10.874;2023-04-28T15:57:51;3.53;;;2.33;;
9449;SDS011;4763;48.370;10.874;2023-04-28T16:00:39;4.87;;;2.27;;
9449;SDS011;4763;48.370;10.874;2023-04-28T16:03:29;2.87;;;1.70;;
9449;SDS011;4763;48.370;10.874;2023-04-28T16:06:16;5.10;;;1.83;;
9449;SDS011;4763;48.370;10.874;2023-04-28T16:09:03;1.60;;;1.30;;
9449;SDS011;4763;48.370;10.874;2023-04-28T16:11:50;4.30;;;1.43;;
9449;SDS011;4763;48.370;10.874;2023-04-28T16:14:37;2.87;;;1.53;;
9449;SDS011;4763;48.370;10.874;2023-04-28T16:17:25;1.60;;;1.30;;
9449;SDS011;4763;48.370;10.874;2023-04-28T16:20:13;2.47;;;1.70;;
9449;SDS011;4763;48.370;10.874;2023-04-28T16:23:00;1.77;;;1.40;;
9449;SDS011;4763;48.370;10.874;2023-04-28T16:25:50;1.43;;;1.27;;
9449;SDS011;4763;48.370;10.874;2023-04-28T16:28:38;2.07;;;1.53;;
9449;SDS011;4763;48.370;10.874;2023-04-28T16:31:25;1.20;;;1.00;;
9449;SDS011;4763;48.370;10.874;2023-04-28T16:34:13;4.20;;;1.30;;
9449;SDS011;4763;48.370;10.874;2023-04-28T16:37:01;1.20;;;1.10;;
9449;SDS011;4763;48.370;10.874;2023-04-28T16:39:48;5.87;;;4.30;;
9449;SDS011;4763;48.370;10.874;2023-04-28T16:42:35;3.47;;;2.13;;
9449;SDS011;4763;48.370;10.874;2023-04-28T16:45:22;3.63;;;1.40;;
9449;SDS011;4763;48.370;10.874;2023-04-28T16:48:09;3.70;;;1.57;;
9449;SDS011;4763;48.370;10.874;2023-04-28T16:50:58;2.87;;;1.80;;
9449;SDS011;4763;48.370;10.874;2023-04-28T16:53:45;3.00;;;1.67;;
9449;SDS011;4763;48.370;10.874;2023-04-28T16:56:32;2.93;;;1.93;;
9449;SDS011;4763;48.370;10.874;2023-04-28T16:59:23;2.80;;;1.90;;
9449;SDS011;4763;48.370;10.874;2023-04-28T17:02:13;3.57;;;2.50;;
9449;SDS011;4763;48.370;10.874;2023-04-28T17:05:00;2.53;;;1.97;;
9449;SDS011;4763;48.370;10.874;2023-04-28T17:07:49;9.63;;;3.20;;
9449;SDS011;4763;48.370;10.874;2023-04-28T17:10:36;4.83;;;2.90;;
9449;SDS011;4763;48.370;10.874;2023-04-28T17:13:23;6.87;;;3.43;;
9449;SDS011;4763;48.370;10.874;2023-04-28T17:16:10;5.20;;;2.77;;